sensor_id;sensor_type;location;lat;lon;timestamp;P1;durP1;ratioP1;P2;durP2;ratioP2
22046;SDS011;11187;49.412;20.956;2023-02-01T00:01:45;20.23;;;16.23;;
22046;SDS011;11187;49.412;20.956;2023-02-01T00:04:18;19.23;;;17.48;;
22046;SDS011;11187;49.412;20.956;2023-02-01T00:07:05;17.80;;;16.15;;
22046;SDS011;11187;49.412;20.956;2023-02-01T00:09:39;17.67;;;15.95;;
22046;SDS011;11187;49.412;20.956;2023-02-01T00:12:33;16.42;;;14.90;;
22046;SDS011;11187;49.412;20.956;2023-02-01T00:15:27;18.48;;;16.55;;
22046;SDS011;11187;49.412;20.956;2023-02-01T00:18:21;19.23;;;17.27;;
22046;SDS011;11187;49.412;20.956;2023-02-01T00:21:16;18.80;;;17.27;;
22046;SDS011;11187;49.412;20.956;2023-02-01T00:23:51;18.88;;;17.13;;
22046;SDS011;11187;49.412;20.956;2023-02-01T00:29:13;18.77;;;17.25;;
22046;SDS011;11187;49.412;20.956;2023-02-01T00:32:02;19.80;;;17.85;;
22046;SDS011;11187;49.412;20.956;2023-02-01T00:34:35;19.90;;;18.15;;
22046;SDS011;11187;49.412;20.956;2023-02-01T00:37:22;18.52;;;16.98;;
22046;SDS011;11187;49.412;20.956;2023-02-01T00:39:55;19.73;;;17.80;;
22046;SDS011;11187;49.412;20.956;2023-02-01T00:42:42;26.58;;;19.63;;
22046;SDS011;11187;49.412;20.956;2023-02-01T00:45:15;25.17;;;21.00;;
22046;SDS011;11187;49.412;20.956;2023-02-01T00:48:02;19.38;;;17.15;;
22046;SDS011;11187;49.412;20.956;2023-02-01T00:50:35;16.60;;;15.40;;
22046;SDS011;11187;49.412;20.956;2023-02-01T00:53:27;16.48;;;15.15;;
22046;SDS011;11187;49.412;20.956;2023-02-01T00:56:00;16.58;;;15.48;;
22046;SDS011;11187;49.412;20.956;2023-02-01T00:58:47;14.82;;;13.93;;
22046;SDS011;11187;49.412;20.956;2023-02-01T01:01:21;15.27;;;14.38;;
22046;SDS011;11187;49.412;20.956;2023-02-01T01:04:10;14.55;;;13.65;;
22046;SDS011;11187;49.412;20.956;2023-02-01T01:06:43;15.20;;;14.30;;
22046;SDS011;11187;49.412;20.956;2023-02-01T01:09:30;15.55;;;14.55;;
22046;SDS011;11187;49.412;20.956;2023-02-01T01:12:03;15.48;;;14.55;;
22046;SDS011;11187;49.412;20.956;2023-02-01T01:14:50;14.35;;;13.45;;
22046;SDS011;11187;49.412;20.956;2023-02-01T01:17:23;15.20;;;14.20;;
22046;SDS011;11187;49.412;20.956;2023-02-01T01:20:10;15.80;;;14.90;;
22046;SDS011;11187;49.412;20.956;2023-02-01T01:22:45;14.82;;;13.93;;
22046;SDS011;11187;49.412;20.956;2023-02-01T01:25:32;15.43;;;14.48;;
22046;SDS011;11187;49.412;20.956;2023-02-01T01:28:09;15.20;;;14.40;;
22046;SDS011;11187;49.412;20.956;2023-02-01T01:30:56;14.60;;;13.80;;
22046;SDS011;11187;49.412;20.956;2023-02-01T01:33:29;15.43;;;14.52;;
22046;SDS011;11187;49.412;20.956;2023-02-01T01:36:16;15.30;;;14.40;;
22046;SDS011;11187;49.412;20.956;2023-02-01T01:38:53;16.35;;;15.27;;
22046;SDS011;11187;49.412;20.956;2023-02-01T01:41:48;16.23;;;15.15;;
22046;SDS011;11187;49.412;20.956;2023-02-01T01:47:40;15.93;;;15.02;;
22046;SDS011;11187;49.412;20.956;2023-02-01T01:50:31;15.50;;;14.57;;
22046;SDS011;11187;49.412;20.956;2023-02-01T01:53:08;15.60;;;14.70;;
22046;SDS011;11187;49.412;20.956;2023-02-01T01:55:58;15.77;;;14.88;;
22046;SDS011;11187;49.412;20.956;2023-02-01T01:58:32;15.25;;;14.35;;
22046;SDS011;11187;49.412;20.956;2023-02-01T02:01:27;15.02;;;14.07;;
22046;SDS011;11187;49.412;20.956;2023-02-01T02:04:02;15.77;;;14.88;;
22046;SDS011;11187;49.412;20.956;2023-02-01T02:09:28;15.00;;;14.20;;
22046;SDS011;11187;49.412;20.956;2023-02-01T02:12:15;15.90;;;15.00;;
22046;SDS011;11187;49.412;20.956;2023-02-01T02:14:48;15.05;;;14.15;;
22046;SDS011;11187;49.412;20.956;2023-02-01T02:18:25;14.85;;;13.95;;
22046;SDS011;11187;49.412;20.956;2023-02-01T02:24:33;15.25;;;14.32;;
22046;SDS011;11187;49.412;20.956;2023-02-01T02:36:38;15.18;;;14.27;;
22046;SDS011;11187;49.412;20.956;2023-02-01T02:52:08;15.38;;;14.40;;
22046;SDS011;11187;49.412;20.956;2023-02-01T02:55:04;16.58;;;15.57;;
22046;SDS011;11187;49.412;20.956;2023-02-01T02:58:01;16.50;;;15.07;;
22046;SDS011;11187;49.412;20.956;2023-02-01T03:00:55;16.13;;;15.23;;
22046;SDS011;11187;49.412;20.956;2023-02-01T03:04:08;16.65;;;15.65;;
22046;SDS011;11187;49.412;20.956;2023-02-01T03:16:52;17.42;;;16.20;;
22046;SDS011;11187;49.412;20.956;2023-02-01T03:19:55;15.90;;;14.85;;
22046;SDS011;11187;49.412;20.956;2023-02-01T03:22:54;14.57;;;13.77;;
22046;SDS011;11187;49.412;20.956;2023-02-01T03:25:30;14.35;;;13.45;;
22046;SDS011;11187;49.412;20.956;2023-02-01T03:28:26;13.70;;;12.80;;
22046;SDS011;11187;49.412;20.956;2023-02-01T03:31:06;13.23;;;12.32;;
22046;SDS011;11187;49.412;20.956;2023-02-01T03:33:54;14.20;;;13.27;;
22046;SDS011;11187;49.412;20.956;2023-02-01T03:36:49;12.48;;;11.77;;
22046;SDS011;11187;49.412;20.956;2023-02-01T03:40:00;14.07;;;13.20;;
22046;SDS011;11187;49.412;20.956;2023-02-01T03:42:58;13.90;;;13.02;;
22046;SDS011;11187;49.412;20.956;2023-02-01T03:45:34;14.20;;;13.30;;
22046;SDS011;11187;49.412;20.956;2023-02-01T03:48:26;15.15;;;14.15;;
22046;SDS011;11187;49.412;20.956;2023-02-01T03:51:03;13.93;;;13.13;;
22046;SDS011;11187;49.412;20.956;2023-02-01T03:53:51;14.35;;;13.50;;
22046;SDS011;11187;49.412;20.956;2023-02-01T03:56:27;14.15;;;13.35;;
22046;SDS011;11187;49.412;20.956;2023-02-01T03:59:22;15.30;;;14.20;;
22046;SDS011;11187;49.412;20.956;2023-02-01T04:01:59;14.77;;;13.48;;
22046;SDS011;11187;49.412;20.956;2023-02-01T04:04:46;15.07;;;13.88;;
22046;SDS011;11187;49.412;20.956;2023-02-01T04:07:19;15.20;;;13.88;;
22046;SDS011;11187;49.412;20.956;2023-02-01T04:10:06;14.45;;;13.18;;
22046;SDS011;11187;49.412;20.956;2023-02-01T04:12:44;14.55;;;13.48;;
22046;SDS011;11187;49.412;20.956;2023-02-01T04:15:30;14.65;;;13.75;;
22046;SDS011;11187;49.412;20.956;2023-02-01T04:18:11;14.73;;;13.70;;
22046;SDS011;11187;49.412;20.956;2023-02-01T04:20:58;13.30;;;12.40;;
22046;SDS011;11187;49.412;20.956;2023-02-01T04:23:31;15.27;;;13.95;;
22046;SDS011;11187;49.412;20.956;2023-02-01T04:26:18;14.38;;;13.27;;
22046;SDS011;11187;49.412;20.956;2023-02-01T04:28:51;13.38;;;12.35;;
22046;SDS011;11187;49.412;20.956;2023-02-01T04:31:38;14.38;;;13.35;;
22046;SDS011;11187;49.412;20.956;2023-02-01T04:34:27;13.68;;;12.88;;
22046;SDS011;11187;49.412;20.956;2023-02-01T04:37:22;13.80;;;12.93;;
22046;SDS011;11187;49.412;20.956;2023-02-01T04:39:55;14.45;;;13.25;;
22046;SDS011;11187;49.412;20.956;2023-02-01T04:42:43;15.68;;;14.68;;
22046;SDS011;11187;49.412;20.956;2023-02-01T04:45:16;14.48;;;13.35;;
22046;SDS011;11187;49.412;20.956;2023-02-01T04:48:10;14.45;;;13.40;;
22046;SDS011;11187;49.412;20.956;2023-02-01T04:51:04;14.00;;;12.90;;
22046;SDS011;11187;49.412;20.956;2023-02-01T04:53:37;14.23;;;13.02;;
22046;SDS011;11187;49.412;20.956;2023-02-01T04:56:31;12.95;;;11.82;;
22046;SDS011;11187;49.412;20.956;2023-02-01T04:59:25;13.20;;;12.00;;
22046;SDS011;11187;49.412;20.956;2023-02-01T05:01:58;11.48;;;10.65;;
22046;SDS011;11187;49.412;20.956;2023-02-01T05:04:52;12.27;;;11.32;;
22046;SDS011;11187;49.412;20.956;2023-02-01T05:07:46;14.45;;;11.90;;
22046;SDS011;11187;49.412;20.956;2023-02-01T05:10:40;13.07;;;11.88;;
22046;SDS011;11187;49.412;20.956;2023-02-01T05:13:13;14.75;;;13.75;;
22046;SDS011;11187;49.412;20.956;2023-02-01T05:16:18;14.60;;;13.43;;
22046;SDS011;11187;49.412;20.956;2023-02-01T05:18:52;11.60;;;10.80;;
22046;SDS011;11187;49.412;20.956;2023-02-01T05:21:46;11.70;;;10.75;;
22046;SDS011;11187;49.412;20.956;2023-02-01T05:24:40;13.57;;;12.27;;
22046;SDS011;11187;49.412;20.956;2023-02-01T05:27:13;13.95;;;12.90;;
22046;SDS011;11187;49.412;20.956;2023-02-01T05:30:00;14.55;;;13.18;;
22046;SDS011;11187;49.412;20.956;2023-02-01T05:32:34;12.98;;;11.75;;
22046;SDS011;11187;49.412;20.956;2023-02-01T05:35:21;16.40;;;15.30;;
22046;SDS011;11187;49.412;20.956;2023-02-01T05:37:54;15.23;;;14.23;;
22046;SDS011;11187;49.412;20.956;2023-02-01T05:40:41;17.25;;;16.02;;
22046;SDS011;11187;49.412;20.956;2023-02-01T05:43:14;12.10;;;11.30;;
22046;SDS011;11187;49.412;20.956;2023-02-01T05:46:01;12.10;;;11.30;;
22046;SDS011;11187;49.412;20.956;2023-02-01T05:48:34;12.90;;;11.90;;
22046;SDS011;11187;49.412;20.956;2023-02-01T05:51:21;11.63;;;10.70;;
22046;SDS011;11187;49.412;20.956;2023-02-01T05:53:54;12.77;;;11.68;;
22046;SDS011;11187;49.412;20.956;2023-02-01T05:56:41;13.57;;;12.38;;
22046;SDS011;11187;49.412;20.956;2023-02-01T05:59:14;12.52;;;11.63;;
22046;SDS011;11187;49.412;20.956;2023-02-01T06:02:01;12.93;;;11.93;;
22046;SDS011;11187;49.412;20.956;2023-02-01T06:04:34;13.75;;;12.57;;
22046;SDS011;11187;49.412;20.956;2023-02-01T06:07:21;11.18;;;10.27;;
22046;SDS011;11187;49.412;20.956;2023-02-01T06:09:55;11.57;;;9.57;;
22046;SDS011;11187;49.412;20.956;2023-02-01T06:12:41;11.60;;;10.75;;
22046;SDS011;11187;49.412;20.956;2023-02-01T06:15:15;14.45;;;11.55;;
22046;SDS011;11187;49.412;20.956;2023-02-01T06:18:02;10.73;;;9.27;;
22046;SDS011;11187;49.412;20.956;2023-02-01T06:20:36;9.43;;;8.57;;
22046;SDS011;11187;49.412;20.956;2023-02-01T06:23:30;10.95;;;10.10;;
22046;SDS011;11187;49.412;20.956;2023-02-01T06:26:24;11.98;;;10.88;;
22046;SDS011;11187;49.412;20.956;2023-02-01T06:29:00;10.85;;;9.82;;
22046;SDS011;11187;49.412;20.956;2023-02-01T06:31:47;11.70;;;10.82;;
22046;SDS011;11187;49.412;20.956;2023-02-01T06:34:20;11.48;;;10.68;;
22046;SDS011;11187;49.412;20.956;2023-02-01T06:37:07;10.57;;;9.65;;
22046;SDS011;11187;49.412;20.956;2023-02-01T06:39:40;11.00;;;10.15;;
22046;SDS011;11187;49.412;20.956;2023-02-01T06:42:27;10.07;;;9.35;;
22046;SDS011;11187;49.412;20.956;2023-02-01T06:45:00;15.20;;;10.18;;
22046;SDS011;11187;49.412;20.956;2023-02-01T06:47:47;11.27;;;10.38;;
22046;SDS011;11187;49.412;20.956;2023-02-01T06:50:20;11.38;;;10.38;;
22046;SDS011;11187;49.412;20.956;2023-02-01T06:53:14;12.13;;;11.00;;
22046;SDS011;11187;49.412;20.956;2023-02-01T06:56:08;11.52;;;10.73;;
22046;SDS011;11187;49.412;20.956;2023-02-01T06:58:44;11.73;;;10.82;;
22046;SDS011;11187;49.412;20.956;2023-02-01T07:01:31;10.35;;;9.52;;
22046;SDS011;11187;49.412;20.956;2023-02-01T07:04:09;11.77;;;10.98;;
22046;SDS011;11187;49.412;20.956;2023-02-01T07:07:04;12.68;;;11.70;;
22046;SDS011;11187;49.412;20.956;2023-02-01T07:09:37;11.32;;;10.32;;
22046;SDS011;11187;49.412;20.956;2023-02-01T07:12:31;11.35;;;10.45;;
22046;SDS011;11187;49.412;20.956;2023-02-01T07:15:25;9.48;;;8.65;;
22046;SDS011;11187;49.412;20.956;2023-02-01T07:17:58;10.48;;;9.45;;
22046;SDS011;11187;49.412;20.956;2023-02-01T07:20:52;10.75;;;9.57;;
22046;SDS011;11187;49.412;20.956;2023-02-01T07:23:46;10.80;;;9.52;;
22046;SDS011;11187;49.412;20.956;2023-02-01T07:26:22;12.70;;;11.90;;
22046;SDS011;11187;49.412;20.956;2023-02-01T07:29:09;9.65;;;8.70;;
22046;SDS011;11187;49.412;20.956;2023-02-01T07:31:43;10.07;;;9.38;;
22046;SDS011;11187;49.412;20.956;2023-02-01T07:34:30;11.93;;;10.82;;
22046;SDS011;11187;49.412;20.956;2023-02-01T07:37:03;14.90;;;12.77;;
22046;SDS011;11187;49.412;20.956;2023-02-01T07:39:57;12.98;;;12.07;;
22046;SDS011;11187;49.412;20.956;2023-02-01T07:42:51;11.90;;;8.65;;
22046;SDS011;11187;49.412;20.956;2023-02-01T07:45:24;10.85;;;9.73;;
22046;SDS011;11187;49.412;20.956;2023-02-01T07:48:14;10.15;;;8.40;;
22046;SDS011;11187;49.412;20.956;2023-02-01T07:50:48;13.15;;;10.75;;
22046;SDS011;11187;49.412;20.956;2023-02-01T07:53:35;10.48;;;9.38;;
22046;SDS011;11187;49.412;20.956;2023-02-01T07:56:13;10.52;;;9.55;;
22046;SDS011;11187;49.412;20.956;2023-02-01T07:59:11;10.20;;;9.20;;
22046;SDS011;11187;49.412;20.956;2023-02-01T08:02:05;10.05;;;9.15;;
22046;SDS011;11187;49.412;20.956;2023-02-01T08:04:39;12.85;;;10.60;;
22046;SDS011;11187;49.412;20.956;2023-02-01T08:07:32;10.13;;;9.10;;
22046;SDS011;11187;49.412;20.956;2023-02-01T08:10:06;14.80;;;13.10;;
22046;SDS011;11187;49.412;20.956;2023-02-01T08:12:57;23.95;;;16.08;;
22046;SDS011;11187;49.412;20.956;2023-02-01T08:15:30;13.45;;;10.77;;
22046;SDS011;11187;49.412;20.956;2023-02-01T08:18:17;15.30;;;13.75;;
22046;SDS011;11187;49.412;20.956;2023-02-01T08:20:50;12.23;;;10.93;;
22046;SDS011;11187;49.412;20.956;2023-02-01T08:23:37;14.65;;;11.07;;
22046;SDS011;11187;49.412;20.956;2023-02-01T08:29:14;14.90;;;10.35;;
22046;SDS011;11187;49.412;20.956;2023-02-01T08:31:47;10.00;;;8.98;;
22046;SDS011;11187;49.412;20.956;2023-02-01T08:34:41;9.90;;;8.93;;
22046;SDS011;11187;49.412;20.956;2023-02-01T08:37:35;14.43;;;11.65;;
22046;SDS011;11187;49.412;20.956;2023-02-01T08:40:09;14.65;;;11.48;;
22046;SDS011;11187;49.412;20.956;2023-02-01T08:42:56;12.20;;;10.98;;
22046;SDS011;11187;49.412;20.956;2023-02-01T08:45:33;12.80;;;10.73;;
22046;SDS011;11187;49.412;20.956;2023-02-01T08:48:20;13.23;;;10.15;;
22046;SDS011;11187;49.412;20.956;2023-02-01T08:50:53;19.13;;;11.82;;
22046;SDS011;11187;49.412;20.956;2023-02-01T08:53:47;16.98;;;13.00;;
22046;SDS011;11187;49.412;20.956;2023-02-01T08:56:41;13.40;;;12.02;;
22046;SDS011;11187;49.412;20.956;2023-02-01T08:59:53;13.45;;;10.52;;
22046;SDS011;11187;49.412;20.956;2023-02-01T09:02:47;13.77;;;11.57;;
22046;SDS011;11187;49.412;20.956;2023-02-01T09:05:41;11.73;;;10.30;;
22046;SDS011;11187;49.412;20.956;2023-02-01T09:08:15;11.25;;;10.18;;
22046;SDS011;11187;49.412;20.956;2023-02-01T09:11:13;11.73;;;10.73;;
22046;SDS011;11187;49.412;20.956;2023-02-01T09:13:48;12.85;;;11.27;;
22046;SDS011;11187;49.412;20.956;2023-02-01T09:16:34;11.52;;;9.60;;
22046;SDS011;11187;49.412;20.956;2023-02-01T09:19:10;14.00;;;12.63;;
22046;SDS011;11187;49.412;20.956;2023-02-01T09:22:05;13.15;;;11.73;;
22046;SDS011;11187;49.412;20.956;2023-02-01T09:24:59;14.43;;;12.98;;
22046;SDS011;11187;49.412;20.956;2023-02-01T09:27:33;12.32;;;11.05;;
22046;SDS011;11187;49.412;20.956;2023-02-01T09:30:20;11.95;;;10.18;;
22046;SDS011;11187;49.412;20.956;2023-02-01T09:32:56;12.85;;;11.45;;
22046;SDS011;11187;49.412;20.956;2023-02-01T09:35:43;15.88;;;11.52;;
22046;SDS011;11187;49.412;20.956;2023-02-01T09:38:16;13.57;;;12.27;;
22046;SDS011;11187;49.412;20.956;2023-02-01T09:41:57;13.00;;;11.85;;
22046;SDS011;11187;49.412;20.956;2023-02-01T09:47:23;12.00;;;10.88;;
22046;SDS011;11187;49.412;20.956;2023-02-01T09:50:19;13.30;;;11.95;;
22046;SDS011;11187;49.412;20.956;2023-02-01T09:53:00;16.20;;;14.65;;
22046;SDS011;11187;49.412;20.956;2023-02-01T09:55:53;16.88;;;14.57;;
22046;SDS011;11187;49.412;20.956;2023-02-01T09:58:35;13.43;;;10.50;;
22046;SDS011;11187;49.412;20.956;2023-02-01T10:01:32;13.40;;;10.95;;
22046;SDS011;11187;49.412;20.956;2023-02-01T10:04:07;15.00;;;13.70;;
22046;SDS011;11187;49.412;20.956;2023-02-01T10:07:06;15.80;;;14.30;;
22046;SDS011;11187;49.412;20.956;2023-02-01T10:12:51;16.42;;;14.80;;
22046;SDS011;11187;49.412;20.956;2023-02-01T10:22:40;15.90;;;14.13;;
22046;SDS011;11187;49.412;20.956;2023-02-01T10:26:10;15.25;;;13.85;;
22046;SDS011;11187;49.412;20.956;2023-02-01T10:28:52;16.70;;;15.13;;
22046;SDS011;11187;49.412;20.956;2023-02-01T10:31:41;15.07;;;13.68;;
22046;SDS011;11187;49.412;20.956;2023-02-01T10:37:30;13.68;;;12.43;;
22046;SDS011;11187;49.412;20.956;2023-02-01T10:43:15;16.05;;;13.45;;
22046;SDS011;11187;49.412;20.956;2023-02-01T10:46:09;14.88;;;13.48;;
22046;SDS011;11187;49.412;20.956;2023-02-01T10:48:43;14.40;;;13.02;;
22046;SDS011;11187;49.412;20.956;2023-02-01T10:54:46;13.50;;;12.30;;
22046;SDS011;11187;49.412;20.956;2023-02-01T10:57:33;15.23;;;14.05;;
22046;SDS011;11187;49.412;20.956;2023-02-01T11:00:20;16.83;;;15.13;;
22046;SDS011;11187;49.412;20.956;2023-02-01T11:03:21;14.90;;;13.50;;
22046;SDS011;11187;49.412;20.956;2023-02-01T11:06:11;14.45;;;13.40;;
22046;SDS011;11187;49.412;20.956;2023-02-01T11:09:15;10.75;;;10.00;;
22046;SDS011;11187;49.412;20.956;2023-02-01T11:12:22;13.88;;;12.35;;
22046;SDS011;11187;49.412;20.956;2023-02-01T11:18:16;11.95;;;10.35;;
22046;SDS011;11187;49.412;20.956;2023-02-01T11:20:57;12.60;;;11.70;;
22046;SDS011;11187;49.412;20.956;2023-02-01T11:23:52;16.55;;;15.05;;
22046;SDS011;11187;49.412;20.956;2023-02-01T11:26:46;14.40;;;13.18;;
22046;SDS011;11187;49.412;20.956;2023-02-01T11:29:20;16.10;;;14.80;;
22046;SDS011;11187;49.412;20.956;2023-02-01T11:32:10;12.00;;;11.10;;
22046;SDS011;11187;49.412;20.956;2023-02-01T11:34:50;11.65;;;10.65;;
22046;SDS011;11187;49.412;20.956;2023-02-01T11:37:54;14.00;;;12.55;;
22046;SDS011;11187;49.412;20.956;2023-02-01T11:40:50;11.93;;;10.98;;
22046;SDS011;11187;49.412;20.956;2023-02-01T11:43:57;11.57;;;10.60;;
22046;SDS011;11187;49.412;20.956;2023-02-01T11:46:34;11.90;;;10.70;;
22046;SDS011;11187;49.412;20.956;2023-02-01T11:49:24;11.77;;;10.88;;
22046;SDS011;11187;49.412;20.956;2023-02-01T12:03:13;10.93;;;10.02;;
22046;SDS011;11187;49.412;20.956;2023-02-01T12:16:19;10.50;;;9.60;;
22046;SDS011;11187;49.412;20.956;2023-02-01T12:22:22;11.88;;;10.88;;
22046;SDS011;11187;49.412;20.956;2023-02-01T12:35:14;12.10;;;11.10;;
22046;SDS011;11187;49.412;20.956;2023-02-01T12:38:51;10.50;;;9.80;;
22046;SDS011;11187;49.412;20.956;2023-02-01T12:45:13;11.50;;;10.50;;
22046;SDS011;11187;49.412;20.956;2023-02-01T12:48:23;11.60;;;10.73;;
22046;SDS011;11187;49.412;20.956;2023-02-01T12:51:13;13.07;;;12.18;;
22046;SDS011;11187;49.412;20.956;2023-02-01T12:57:30;11.25;;;10.45;;
22046;SDS011;11187;49.412;20.956;2023-02-01T13:00:18;13.77;;;12.80;;
22046;SDS011;11187;49.412;20.956;2023-02-01T13:06:45;10.93;;;9.98;;
22046;SDS011;11187;49.412;20.956;2023-02-01T13:09:30;9.93;;;9.27;;
22046;SDS011;11187;49.412;20.956;2023-02-01T13:12:43;9.57;;;8.98;;
22046;SDS011;11187;49.412;20.956;2023-02-01T13:15:26;9.32;;;8.63;;
22046;SDS011;11187;49.412;20.956;2023-02-01T13:18:17;11.82;;;10.88;;
22046;SDS011;11187;49.412;20.956;2023-02-01T13:20:55;10.05;;;9.25;;
22046;SDS011;11187;49.412;20.956;2023-02-01T13:23:56;12.27;;;11.50;;
22046;SDS011;11187;49.412;20.956;2023-02-01T13:26:53;9.90;;;9.23;;
22046;SDS011;11187;49.412;20.956;2023-02-01T13:29:28;10.82;;;10.02;;
22046;SDS011;11187;49.412;20.956;2023-02-01T13:32:33;11.90;;;10.80;;
22046;SDS011;11187;49.412;20.956;2023-02-01T13:42:23;14.18;;;13.18;;
22046;SDS011;11187;49.412;20.956;2023-02-01T13:45:05;12.43;;;11.48;;
22046;SDS011;11187;49.412;20.956;2023-02-01T13:48:02;13.13;;;11.85;;
22046;SDS011;11187;49.412;20.956;2023-02-01T13:50:39;13.82;;;12.85;;
22046;SDS011;11187;49.412;20.956;2023-02-01T13:53:35;13.95;;;12.95;;
22046;SDS011;11187;49.412;20.956;2023-02-01T13:56:39;12.73;;;11.52;;
22046;SDS011;11187;49.412;20.956;2023-02-01T13:59:35;13.73;;;12.60;;
22046;SDS011;11187;49.412;20.956;2023-02-01T14:02:45;12.93;;;11.90;;
22046;SDS011;11187;49.412;20.956;2023-02-01T14:06:05;13.73;;;12.50;;
22046;SDS011;11187;49.412;20.956;2023-02-01T14:08:40;15.85;;;14.77;;
22046;SDS011;11187;49.412;20.956;2023-02-01T14:17:32;11.32;;;10.43;;
22046;SDS011;11187;49.412;20.956;2023-02-01T14:23:41;12.98;;;11.95;;
22046;SDS011;11187;49.412;20.956;2023-02-01T14:34:58;9.90;;;9.20;;
22046;SDS011;11187;49.412;20.956;2023-02-01T14:37:59;11.68;;;10.98;;
22046;SDS011;11187;49.412;20.956;2023-02-01T14:40:40;12.80;;;11.82;;
22046;SDS011;11187;49.412;20.956;2023-02-01T14:43:49;11.15;;;10.25;;
22046;SDS011;11187;49.412;20.956;2023-02-01T14:50:30;14.20;;;13.20;;
22046;SDS011;11187;49.412;20.956;2023-02-01T14:53:33;13.30;;;12.35;;
22046;SDS011;11187;49.412;20.956;2023-02-01T14:56:12;12.43;;;11.48;;
22046;SDS011;11187;49.412;20.956;2023-02-01T14:59:12;11.52;;;10.52;;
22046;SDS011;11187;49.412;20.956;2023-02-01T15:02:17;11.10;;;10.30;;
22046;SDS011;11187;49.412;20.956;2023-02-01T15:04:57;9.85;;;9.05;;
22046;SDS011;11187;49.412;20.956;2023-02-01T15:07:51;12.50;;;11.30;;
22046;SDS011;11187;49.412;20.956;2023-02-01T15:10:46;11.77;;;10.63;;
22046;SDS011;11187;49.412;20.956;2023-02-01T15:13:50;11.13;;;10.25;;
22046;SDS011;11187;49.412;20.956;2023-02-01T15:16:46;12.02;;;11.00;;
22046;SDS011;11187;49.412;20.956;2023-02-01T15:19:27;10.88;;;10.07;;
22046;SDS011;11187;49.412;20.956;2023-02-01T15:22:22;9.65;;;8.98;;
22046;SDS011;11187;49.412;20.956;2023-02-01T15:25:27;10.85;;;10.05;;
22046;SDS011;11187;49.412;20.956;2023-02-01T15:28:02;10.55;;;9.30;;
22046;SDS011;11187;49.412;20.956;2023-02-01T15:30:54;11.60;;;10.60;;
22046;SDS011;11187;49.412;20.956;2023-02-01T15:33:32;12.20;;;11.07;;
22046;SDS011;11187;49.412;20.956;2023-02-01T15:36:18;14.20;;;12.70;;
22046;SDS011;11187;49.412;20.956;2023-02-01T15:42:15;10.15;;;9.25;;
22046;SDS011;11187;49.412;20.956;2023-02-01T15:44:53;13.38;;;10.38;;
22046;SDS011;11187;49.412;20.956;2023-02-01T15:47:39;12.73;;;11.63;;
22046;SDS011;11187;49.412;20.956;2023-02-01T15:50:17;11.88;;;10.98;;
22046;SDS011;11187;49.412;20.956;2023-02-01T15:53:05;11.63;;;10.52;;
22046;SDS011;11187;49.412;20.956;2023-02-01T15:55:46;12.23;;;10.77;;
22046;SDS011;11187;49.412;20.956;2023-02-01T15:58:40;11.80;;;10.75;;
22046;SDS011;11187;49.412;20.956;2023-02-01T16:01:16;14.57;;;13.18;;
22046;SDS011;11187;49.412;20.956;2023-02-01T16:09:54;21.85;;;14.65;;
22046;SDS011;11187;49.412;20.956;2023-02-01T16:12:53;19.58;;;14.10;;
22046;SDS011;11187;49.412;20.956;2023-02-01T16:15:31;13.95;;;12.50;;
22046;SDS011;11187;49.412;20.956;2023-02-01T16:18:17;14.15;;;12.75;;
22046;SDS011;11187;49.412;20.956;2023-02-01T16:20:51;12.73;;;11.55;;
22046;SDS011;11187;49.412;20.956;2023-02-01T16:23:37;13.45;;;11.90;;
22046;SDS011;11187;49.412;20.956;2023-02-01T16:26:11;16.73;;;12.80;;
22046;SDS011;11187;49.412;20.956;2023-02-01T16:28:58;11.82;;;10.15;;
22046;SDS011;11187;49.412;20.956;2023-02-01T16:31:36;12.60;;;11.38;;
22046;SDS011;11187;49.412;20.956;2023-02-01T16:34:24;13.95;;;11.60;;
22046;SDS011;11187;49.412;20.956;2023-02-01T16:36:59;15.20;;;13.02;;
22046;SDS011;11187;49.412;20.956;2023-02-01T16:39:52;13.95;;;12.75;;
22046;SDS011;11187;49.412;20.956;2023-02-01T16:42:26;15.25;;;14.05;;
22046;SDS011;11187;49.412;20.956;2023-02-01T16:45:12;14.68;;;13.32;;
22046;SDS011;11187;49.412;20.956;2023-02-01T16:47:50;14.85;;;13.45;;
22046;SDS011;11187;49.412;20.956;2023-02-01T16:50:49;16.45;;;15.10;;
22046;SDS011;11187;49.412;20.956;2023-02-01T16:53:44;14.10;;;12.45;;
22046;SDS011;11187;49.412;20.956;2023-02-01T16:56:21;13.48;;;12.25;;
22046;SDS011;11187;49.412;20.956;2023-02-01T16:59:11;45.67;;;23.48;;
22046;SDS011;11187;49.412;20.956;2023-02-01T17:01:46;18.02;;;15.98;;
22046;SDS011;11187;49.412;20.956;2023-02-01T17:04:32;14.32;;;13.13;;
22046;SDS011;11187;49.412;20.956;2023-02-01T17:07:06;14.60;;;13.30;;
22046;SDS011;11187;49.412;20.956;2023-02-01T17:09:59;15.65;;;14.23;;
22046;SDS011;11187;49.412;20.956;2023-02-01T17:12:36;14.88;;;13.10;;
22046;SDS011;11187;49.412;20.956;2023-02-01T17:15:23;15.05;;;13.52;;
22046;SDS011;11187;49.412;20.956;2023-02-01T17:17:59;14.23;;;12.88;;
22046;SDS011;11187;49.412;20.956;2023-02-01T17:20:46;15.43;;;13.98;;
22046;SDS011;11187;49.412;20.956;2023-02-01T17:23:25;16.33;;;12.82;;
22046;SDS011;11187;49.412;20.956;2023-02-01T17:26:20;14.02;;;12.63;;
22046;SDS011;11187;49.412;20.956;2023-02-01T17:28:54;16.08;;;14.20;;
22046;SDS011;11187;49.412;20.956;2023-02-01T17:31:49;18.05;;;13.98;;
22046;SDS011;11187;49.412;20.956;2023-02-01T17:34:46;13.73;;;12.55;;
22046;SDS011;11187;49.412;20.956;2023-02-01T17:37:40;14.10;;;12.90;;
22046;SDS011;11187;49.412;20.956;2023-02-01T17:40:37;19.05;;;14.52;;
22046;SDS011;11187;49.412;20.956;2023-02-01T17:43:12;18.13;;;14.55;;
22046;SDS011;11187;49.412;20.956;2023-02-01T17:46:05;13.63;;;12.20;;
22046;SDS011;11187;49.412;20.956;2023-02-01T17:48:44;14.50;;;13.10;;
22046;SDS011;11187;49.412;20.956;2023-02-01T17:51:30;12.82;;;11.77;;
22046;SDS011;11187;49.412;20.956;2023-02-01T17:54:04;12.77;;;11.57;;
22046;SDS011;11187;49.412;20.956;2023-02-01T17:56:58;13.35;;;12.32;;
22046;SDS011;11187;49.412;20.956;2023-02-01T17:59:33;11.32;;;10.32;;
22046;SDS011;11187;49.412;20.956;2023-02-01T18:02:23;11.23;;;10.23;;
22046;SDS011;11187;49.412;20.956;2023-02-01T18:04:57;12.98;;;11.88;;
22046;SDS011;11187;49.412;20.956;2023-02-01T18:07:43;11.32;;;10.38;;
22046;SDS011;11187;49.412;20.956;2023-02-01T18:10:17;11.80;;;11.00;;
22046;SDS011;11187;49.412;20.956;2023-02-01T18:13:10;11.65;;;10.85;;
22046;SDS011;11187;49.412;20.956;2023-02-01T18:16:07;12.80;;;11.73;;
22046;SDS011;11187;49.412;20.956;2023-02-01T18:19:09;11.55;;;10.43;;
22046;SDS011;11187;49.412;20.956;2023-02-01T18:21:43;12.05;;;10.95;;
22046;SDS011;11187;49.412;20.956;2023-02-01T18:24:31;10.23;;;9.50;;
22046;SDS011;11187;49.412;20.956;2023-02-01T18:27:07;12.23;;;11.30;;
22046;SDS011;11187;49.412;20.956;2023-02-01T18:30:00;13.05;;;12.15;;
22046;SDS011;11187;49.412;20.956;2023-02-01T18:32:54;10.73;;;9.85;;
22046;SDS011;11187;49.412;20.956;2023-02-01T18:35:30;11.10;;;10.10;;
22046;SDS011;11187;49.412;20.956;2023-02-01T18:38:17;12.10;;;11.02;;